Time;durP1;ratioP1;P1;durP2;ratioP2;P2;SDS_P1;SDS_P2;PMS_P1;PMS_P2;Temp;Humidity;BMP_temperature;BMP_pressure;BME280_temperature;BME280_humidity;BME280_pressure;Samples;Min_cycle;Max_cycle;Signal;HPM_P1;HPM_P2
2023/08/18 00:01:51;;;;;;;2.60;2.33;;;;;;;21.95;72.20;98941.19;4976849;28;41498;-75
2023/08/18 00:04:18;;;;;;;3.13;2.47;;;;;;;21.91;72.24;98929.88;4993888;28;40006;-74
2023/08/18 00:06:47;;;;;;;2.60;2.40;;;;;;;21.91;72.31;98939.81;4992702;28;41722;-73
2023/08/18 00:09:14;;;;;;;2.60;2.40;;;;;;;21.88;72.53;98939.13;4992336;28;42870;-74
2023/08/18 00:11:42;;;;;;;3.87;2.37;;;;;;;21.86;72.93;98938.47;4993040;28;41168;-74
2023/08/18 00:14:10;;;;;;;2.80;2.50;;;;;;;21.74;72.58;98918.22;4976363;28;40533;-74
2023/08/18 00:16:37;;;;;;;2.43;2.23;;;;;;;21.82;72.17;98937.13;4993769;28;44544;-74
2023/08/18 00:19:06;;;;;;;2.90;2.20;;;;;;;21.80;72.58;98936.44;4992470;28;43970;-74
2023/08/18 00:21:34;;;;;;;2.43;2.20;;;;;;;21.68;72.81;98918.03;4993940;28;42201;-74
2023/08/18 00:24:01;;;;;;;3.00;2.40;;;;;;;21.73;73.22;98930.03;4992168;28;39074;-74
2023/08/18 00:26:29;;;;;;;2.93;2.20;;;;;;;21.65;72.76;98921.91;4992898;28;42452;-74
2023/08/18 00:28:56;;;;;;;2.23;2.03;;;;;;;21.69;72.38;98920.56;4993272;28;42741;-74
2023/08/18 00:31:25;;;;;;;2.50;2.30;;;;;;;21.67;72.28;98930.66;4992313;28;42240;-75
2023/08/18 00:33:53;;;;;;;2.33;2.10;;;;;;;21.65;72.15;98927.28;4992236;28;41030;-74
2023/08/18 00:36:21;;;;;;;2.77;2.03;;;;;;;21.63;72.21;98932.03;4992517;28;41726;-74
2023/08/18 00:38:49;;;;;;;2.40;2.00;;;;;;;21.62;72.59;98924.09;4993288;28;43506;-74
2023/08/18 00:41:16;;;;;;;3.00;2.40;;;;;;;21.60;73.69;98916.16;4976159;28;42371;-74
2023/08/18 00:43:44;;;;;;;3.00;2.70;;;;;;;21.58;74.75;98918.19;4992357;28;40980;-74
2023/08/18 00:46:12;;;;;;;2.60;2.40;;;;;;;21.52;75.09;98916.97;4992351;28;42539;-74
2023/08/18 00:48:40;;;;;;;4.27;2.57;;;;;;;21.55;75.08;98918.50;4975649;28;41071;-74
2023/08/18 00:51:08;;;;;;;2.50;2.30;;;;;;;21.54;75.18;98914.13;4993373;28;42112;-74
2023/08/18 00:53:38;;;;;;;2.20;2.00;;;;;;;21.52;75.34;98910.75;4991578;28;40554;-74
2023/08/18 00:56:07;;;;;;;3.83;2.23;;;;;;;21.52;75.23;98905.34;4991811;28;43205;-74
2023/08/18 00:58:36;;;;;;;2.63;2.10;;;;;;;21.48;75.29;98904.84;4975682;28;43333;-74
2023/08/18 01:01:04;;;;;;;2.50;2.30;;;;;;;21.47;75.25;98902.31;5008415;28;42352;-74
2023/08/18 01:03:32;;;;;;;3.10;2.67;;;;;;;21.35;76.11;98887.47;4993385;28;39791;-74
2023/08/18 01:05:59;;;;;;;3.73;2.50;;;;;;;21.34;76.58;98883.06;4992239;28;42481;-75
2023/08/18 01:08:30;;;;;;;2.27;2.07;;;;;;;21.37;76.96;98889.00;4991682;28;43361;-74
2023/08/18 01:11:07;;;;;;;3.57;2.57;;;;;;;21.35;77.71;98884.75;4993061;28;42372;-74
2023/08/18 01:13:41;;;;;;;2.67;2.47;;;;;;;21.32;77.58;98885.09;4991236;28;40609;-74
2023/08/18 01:16:16;;;;;;;3.10;2.67;;;;;;;21.28;77.56;98889.09;4990127;28;42050;-74
2023/08/18 01:18:43;;;;;;;3.93;2.67;;;;;;;21.24;77.78;98882.38;4991156;28;42566;-73
2023/08/18 01:34:13;;;;;;;3.07;2.73;;;;;;;21.01;78.13;98882.09;4768342;29;42294;-74
2023/08/18 01:36:44;;;;;;;2.87;2.40;;;;;;;20.98;78.35;98887.78;4975275;28;42263;-73
2023/08/18 01:39:15;;;;;;;3.10;2.40;;;;;;;20.94;78.12;98876.47;4991455;28;41199;-74
2023/08/18 01:41:43;;;;;;;3.00;2.37;;;;;;;20.78;78.62;98854.84;4991708;28;42343;-74
2023/08/18 01:44:15;;;;;;;2.80;2.60;;;;;;;20.90;77.95;98875.09;4991310;28;41849;-74
2023/08/18 01:46:43;;;;;;;2.97;2.70;;;;;;;20.89;78.27;98883.38;4988310;28;42390;-74
2023/08/18 01:49:12;;;;;;;2.67;2.23;;;;;;;20.86;77.91;98879.16;4991365;28;40680;-73
2023/08/18 01:51:39;;;;;;;2.57;2.37;;;;;;;20.83;77.73;98874.06;4974629;28;40791;-74
2023/08/18 01:54:07;;;;;;;2.43;2.23;;;;;;;20.68;77.16;98848.75;4990761;28;43833;-74
2023/08/18 01:56:34;;;;;;;3.13;2.67;;;;;;;20.79;78.04;98867.31;4991248;28;41388;-74
2023/08/18 01:59:04;;;;;;;3.43;2.40;;;;;;;20.72;77.64;98866.28;4991052;28;40044;-74
2023/08/18 02:01:32;;;;;;;2.60;2.40;;;;;;;20.74;78.29;98869.66;5007562;28;41685;-74
2023/08/18 02:04:01;;;;;;;3.17;2.30;;;;;;;20.71;78.20;98872.66;4974607;28;43189;-74
2023/08/18 02:06:31;;;;;;;2.77;2.57;;;;;;;20.68;78.38;98868.44;4990531;28;43195;-75
2023/08/18 02:08:58;;;;;;;3.57;2.93;;;;;;;20.66;78.98;98864.22;4974573;28;39584;-74
2023/08/18 02:11:26;;;;;;;3.07;2.40;;;;;;;20.62;79.32;98854.78;4991263;28;40434;-74
2023/08/18 02:13:54;;;;;;;3.73;2.40;;;;;;;20.61;79.11;98853.94;4990810;28;42663;-74
2023/08/18 02:16:22;;;;;;;2.50;2.30;;;;;;;20.59;79.05;98863.16;4990785;28;42700;-74
2023/08/18 02:18:50;;;;;;;2.80;2.60;;;;;;;20.56;79.36;98855.41;4990820;28;41938;-73
2023/08/18 02:21:17;;;;;;;2.40;2.20;;;;;;;20.54;79.34;98865.47;4990825;28;41801;-74
2023/08/18 02:23:46;;;;;;;3.27;2.70;;;;;;;20.51;80.04;98865.81;4991856;28;42577;-74
2023/08/18 02:26:14;;;;;;;4.40;2.47;;;;;;;20.49;81.27;98854.38;4990843;28;42367;-74
2023/08/18 02:28:42;;;;;;;3.13;2.80;;;;;;;20.44;82.52;98852.13;4990502;28;39902;-74
2023/08/18 02:31:10;;;;;;;2.63;2.43;;;;;;;20.43;81.86;98861.22;4990950;28;41592;-74
2023/08/18 02:33:37;;;;;;;2.73;2.53;;;;;;;20.41;82.07;98871.28;4990214;28;43530;-74
2023/08/18 02:36:07;;;;;;;2.60;2.40;;;;;;;20.39;81.44;98882.22;4990526;28;41584;-74
2023/08/18 02:38:36;;;;;;;2.83;2.50;;;;;;;20.35;82.12;98875.47;4990169;28;39316;-74
2023/08/18 02:41:05;;;;;;;3.17;2.40;;;;;;;20.34;82.46;98862.97;4990473;28;41679;-74
2023/08/18 02:43:32;;;;;;;3.40;2.53;;;;;;;20.31;82.31;98868.66;4990061;28;42784;-74
2023/08/18 02:46:01;;;;;;;2.70;2.50;;;;;;;20.29;81.54;98865.28;4990534;28;42201;-74
2023/08/18 02:48:30;;;;;;;2.87;2.50;;;;;;;20.28;81.18;98873.50;4990380;28;40017;-74
2023/08/18 02:51:04;;;;;;;2.30;2.10;;;;;;;20.26;81.05;98860.25;4974568;28;42679;-74
2023/08/18 02:53:32;;;;;;;2.60;2.40;;;;;;;20.24;81.06;98866.78;4973704;28;42925;-74
2023/08/18 02:56:00;;;;;;;2.80;2.60;;;;;;;20.22;81.09;98868.78;4974056;28;43470;-74
2023/08/18 02:58:30;;;;;;;2.60;2.10;;;;;;;20.21;81.86;98873.31;4989989;28;41658;-74
2023/08/18 03:01:02;;;;;;;3.53;2.20;;;;;;;20.18;81.57;98862.84;4990565;28;42457;-74
2023/08/18 03:03:30;;;;;;;3.30;2.23;;;;;;;20.07;81.31;98849.66;4990752;28;42798;-73
2023/08/18 03:06:00;;;;;;;2.30;2.10;;;;;;;20.08;81.20;98862.94;4974128;28;43278;-74
2023/08/18 03:08:27;;;;;;;1.80;1.70;;;;;;;20.15;80.60;98873.94;4989542;28;40015;-74
2023/08/18 03:10:59;;;;;;;2.03;1.83;;;;;;;20.13;80.37;98870.56;4991713;28;41829;-74
2023/08/18 03:13:27;;;;;;;2.30;2.10;;;;;;;20.09;80.04;98874.56;4989320;28;43781;-74
2023/08/18 03:15:56;;;;;;;2.30;2.10;;;;;;;20.09;80.44;98880.78;5006481;28;42007;-74
2023/08/18 03:18:24;;;;;;;2.20;2.00;;;;;;;19.91;80.57;98854.88;4988818;28;39679;-73
2023/08/18 03:20:58;;;;;;;2.13;1.93;;;;;;;20.04;80.52;98874.16;4973791;28;41936;-74
2023/08/18 03:23:26;;;;;;;2.67;2.30;;;;;;;20.02;80.73;98878.88;5005416;28;42739;-74
2023/08/18 03:26:00;;;;;;;2.43;2.13;;;;;;;19.99;80.78;98873.78;4973689;28;42301;-74
2023/08/18 03:28:28;;;;;;;2.20;2.00;;;;;;;19.94;81.20;98870.72;4989315;28;40660;-74
2023/08/18 03:31:01;;;;;;;3.47;2.30;;;;;;;19.95;81.52;98883.16;4991003;28;42469;-75
2023/08/18 03:33:31;;;;;;;3.43;2.43;;;;;;;19.93;81.06;98885.16;4989234;28;42483;-74
2023/08/18 03:35:59;;;;;;;2.40;2.20;;;;;;;19.91;80.77;98887.16;4989830;28;43048;-74
2023/08/18 03:38:27;;;;;;;2.10;1.90;;;;;;;19.88;80.73;98888.31;4973002;28;40348;-74
2023/08/18 03:41:00;;;;;;;1.83;1.73;;;;;;;19.87;81.05;98892.00;4973851;28;41064;-74
2023/08/18 03:43:27;;;;;;;3.07;2.73;;;;;;;19.75;80.66;98876.25;4988947;28;42376;-74
2023/08/18 03:46:01;;;;;;;2.10;1.90;;;;;;;19.84;80.61;98897.69;4989712;28;42343;-74
2023/08/18 03:48:29;;;;;;;1.70;1.60;;;;;;;19.65;80.48;98877.19;4989242;28;40002;-74
2023/08/18 03:50:59;;;;;;;2.00;1.90;;;;;;;19.82;80.09;98904.19;4989838;28;42315;-73
2023/08/18 03:53:26;;;;;;;2.53;2.00;;;;;;;19.78;80.42;98906.34;4972568;28;42965;-74
2023/08/18 03:55:56;;;;;;;2.10;1.90;;;;;;;19.69;80.33;98894.66;4989317;28;41962;-75
2023/08/18 03:58:23;;;;;;;2.43;1.67;;;;;;;19.77;80.17;98906.53;4990563;28;40913;-74
2023/08/18 04:00:51;;;;;;;2.23;2.00;;;;;;;19.76;80.49;98911.03;4973295;28;41062;-74
2023/08/18 04:03:20;;;;;;;2.40;2.07;;;;;;;19.75;80.80;98913.88;4973149;28;41982;-74
2023/08/18 04:05:47;;;;;;;2.43;2.23;;;;;;;19.73;80.73;98912.19;4989603;28;42166;-74
2023/08/18 04:08:15;;;;;;;3.13;2.07;;;;;;;19.72;81.32;98907.81;4989196;28;40754;-74
2023/08/18 04:10:43;;;;;;;1.93;1.70;;;;;;;19.72;81.21;98910.50;4973102;28;40696;-74
2023/08/18 04:13:10;;;;;;;3.03;2.80;;;;;;;19.71;81.18;98897.22;4989116;28;42875;-75
2023/08/18 04:15:38;;;;;;;4.07;2.37;;;;;;;19.71;81.30;98903.44;4989271;28;41120;-74
2023/08/18 04:18:06;;;;;;;2.70;2.03;;;;;;;19.67;80.96;98902.03;4989260;28;39817;-74
2023/08/18 04:20:36;;;;;;;2.17;1.97;;;;;;;19.73;81.21;98900.59;4972703;28;42029;-74
2023/08/18 04:23:04;;;;;;;2.53;2.07;;;;;;;19.70;81.38;98907.13;4988972;28;42516;-74
2023/08/18 04:25:32;;;;;;;2.60;2.23;;;;;;;19.73;81.50;98911.34;4989201;28;42626;-74
2023/08/18 04:28:00;;;;;;;3.00;2.00;;;;;;;19.68;81.59;98898.34;4990172;28;40156;-73
2023/08/18 04:30:27;;;;;;;2.17;1.97;;;;;;;19.73;81.51;98912.19;4991693;28;41816;-73
2023/08/18 04:32:55;;;;;;;2.30;2.10;;;;;;;19.73;82.06;98917.56;4991862;28;41716;-74
2023/08/18 04:35:22;;;;;;;2.73;2.07;;;;;;;19.73;81.58;98922.94;4992412;28;42304;-73
2023/08/18 04:37:51;;;;;;;2.30;2.10;;;;;;;19.73;81.29;98920.25;4992139;28;39917;-74
2023/08/18 04:40:19;;;;;;;1.83;1.73;;;;;;;19.75;81.09;98922.78;4992197;28;42542;-74
2023/08/18 04:42:50;;;;;;;2.73;2.40;;;;;;;19.76;81.16;98918.25;4960366;28;41531;-74
2023/08/18 04:45:18;;;;;;;1.90;1.73;;;;;;;19.71;80.81;98911.50;4992395;28;43146;-74
2023/08/18 04:47:46;;;;;;;2.90;2.47;;;;;;;19.79;80.72;98920.63;4975544;28;41068;-74
2023/08/18 04:50:14;;;;;;;2.83;2.00;;;;;;;19.79;80.80;98926.00;4976126;28;40669;-74
2023/08/18 04:52:42;;;;;;;3.30;2.60;;;;;;;19.78;81.09;98930.53;4991671;28;42797;-74
2023/08/18 04:55:11;;;;;;;2.00;1.70;;;;;;;19.71;81.18;98913.34;5008220;28;42305;-74
2023/08/18 04:57:39;;;;;;;2.37;2.17;;;;;;;19.79;80.75;98931.38;4991817;28;40905;-73
2023/08/18 05:00:09;;;;;;;2.23;2.03;;;;;;;19.83;81.24;98922.03;4992054;28;41851;-74
2023/08/18 05:02:36;;;;;;;2.57;2.03;;;;;;;19.85;81.25;98926.25;4975317;28;42708;-74
2023/08/18 05:05:05;;;;;;;2.17;2.00;;;;;;;19.86;81.50;98927.09;4992025;28;42201;-73
2023/08/18 05:07:32;;;;;;;2.67;1.70;;;;;;;19.88;81.89;98915.19;4991339;28;39053;-74
2023/08/18 05:10:00;;;;;;;2.40;2.20;;;;;;;19.90;82.33;98913.22;4991583;28;41733;-73
2023/08/18 05:12:29;;;;;;;2.60;2.10;;;;;;;19.94;83.11;98913.72;4975121;28;43083;-74
2023/08/18 05:14:56;;;;;;;2.23;2.03;;;;;;;19.87;82.55;98902.75;4975344;28;42447;-75
2023/08/18 05:17:24;;;;;;;2.67;2.10;;;;;;;20.04;82.47;98923.41;4992893;28;40138;-74
2023/08/18 05:19:52;;;;;;;2.13;1.93;;;;;;;20.09;82.31;98918.41;4975473;28;41493;-74
2023/08/18 05:22:21;;;;;;;2.20;2.00;;;;;;;20.16;81.37;98926.69;4992684;28;42677;-75
2023/08/18 05:24:49;;;;;;;2.40;2.20;;;;;;;20.23;81.08;98933.16;4992569;28;42446;-76
2023/08/18 05:27:17;;;;;;;2.30;2.03;;;;;;;20.29;80.65;98935.22;4975187;28;38953;-75
2023/08/18 05:29:46;;;;;;;2.23;2.00;;;;;;;20.34;80.73;98932.91;4992845;28;42644;-75
2023/08/18 05:32:13;;;;;;;2.03;1.77;;;;;;;20.39;80.55;98930.66;4991350;28;41985;-74
2023/08/18 05:34:41;;;;;;;2.00;1.80;;;;;;;20.40;80.14;98926.94;4991245;28;42083;-74
2023/08/18 05:37:08;;;;;;;1.90;1.80;;;;;;;20.59;80.10;98933.13;4991110;28;41105;-74
2023/08/18 05:39:36;;;;;;;2.70;2.40;;;;;;;20.69;79.50;98920.41;4958780;28;42268;-74
2023/08/18 05:42:03;;;;;;;2.50;2.30;;;;;;;20.81;79.69;98919.16;4990349;28;42806;-75
2023/08/18 05:44:31;;;;;;;2.23;2.00;;;;;;;20.90;79.59;98918.19;4992917;28;43167;-75
2023/08/18 05:47:00;;;;;;;3.60;2.10;;;;;;;21.01;79.53;98926.00;4974870;28;40094;-75
2023/08/18 06:00:49;;;;;;;2.33;2.13;;;;;;;22.26;76.04;98931.47;4979406;28;41267;-75
2023/08/18 06:03:19;;;;;;;2.67;2.20;;;;;;;22.33;75.73;98934.34;4981900;28;42019;-77
2023/08/18 06:05:47;;;;;;;2.40;2.20;;;;;;;22.39;76.00;98937.19;4989834;28;45111;-75
2023/08/18 06:08:14;;;;;;;2.37;2.03;;;;;;;22.48;75.56;98932.66;4991444;28;42325;-76
2023/08/18 06:10:42;;;;;;;2.60;2.40;;;;;;;22.55;74.98;98937.19;4986210;28;40672;-75
2023/08/18 06:13:10;;;;;;;3.70;2.43;;;;;;;22.58;74.84;98920.66;4989712;28;41479;-79
2023/08/18 06:15:38;;;;;;;2.73;1.93;;;;;;;22.77;74.62;98932.13;4990384;28;41727;-78
2023/08/18 06:18:06;;;;;;;2.40;2.20;;;;;;;22.91;74.49;98939.53;4990881;28;42042;-75
2023/08/18 06:20:35;;;;;;;2.47;2.27;;;;;;;23.08;73.80;98941.19;4990710;28;40357;-76
2023/08/18 06:23:05;;;;;;;2.10;1.90;;;;;;;23.23;73.37;98933.22;4990880;28;41526;-78
2023/08/18 06:25:32;;;;;;;2.47;2.27;;;;;;;23.26;72.93;98927.44;4990444;28;43288;-78
2023/08/18 06:28:00;;;;;;;2.43;2.23;;;;;;;23.48;72.71;98936.66;4989795;28;41677;-78
2023/08/18 06:30:27;;;;;;;2.83;2.13;;;;;;;23.67;71.89;98941.66;4990359;28;41087;-77
2023/08/18 06:32:55;;;;;;;2.30;2.10;;;;;;;23.92;70.89;98954.03;4990652;28;41838;-80
2023/08/18 06:35:22;;;;;;;2.67;1.80;;;;;;;24.26;69.53;98953.66;4981125;28;41834;-77
2023/08/18 06:37:53;;;;;;;2.57;2.27;;;;;;;24.46;69.24;98956.72;5000169;28;42595;-78
2023/08/18 06:40:20;;;;;;;2.20;1.73;;;;;;;24.57;68.88;98955.44;4977998;28;39923;-79
2023/08/18 06:42:51;;;;;;;2.13;1.93;;;;;;;24.81;68.02;98957.94;4990822;28;40801;-78
2023/08/18 06:45:19;;;;;;;1.90;1.80;;;;;;;25.03;67.38;98962.47;4974214;28;43241;-76
2023/08/18 06:47:46;;;;;;;2.30;2.10;;;;;;;25.07;66.15;98968.38;4990335;28;42404;-78
2023/08/18 06:50:16;;;;;;;2.30;2.10;;;;;;;25.05;66.69;98955.00;4973603;28;39089;-77
2023/08/18 06:52:44;;;;;;;2.90;2.30;;;;;;;25.11;66.32;98961.53;4972895;28;41829;-79
2023/08/18 06:55:14;;;;;;;2.33;2.13;;;;;;;25.10;66.63;98951.72;4991084;28;41878;-79
2023/08/18 06:57:42;;;;;;;3.60;2.37;;;;;;;25.11;66.02;98956.09;4990755;28;42420;-79
2023/08/18 07:00:13;;;;;;;2.00;1.90;;;;;;;25.26;63.66;98973.22;4990479;28;39207;-76
2023/08/18 07:02:40;;;;;;;2.50;2.30;;;;;;;25.40;64.12;98958.00;4990730;28;40721;-82
2023/08/18 07:05:08;;;;;;;1.83;1.73;;;;;;;25.62;64.11;98977.91;4974512;28;44005;-78
2023/08/18 07:07:36;;;;;;;1.77;1.67;;;;;;;25.73;63.33;98974.72;4990105;28;42354;-80
2023/08/18 07:10:04;;;;;;;1.70;1.60;;;;;;;25.84;62.26;98982.38;4990552;28;39005;-78
2023/08/18 07:12:35;;;;;;;2.43;1.80;;;;;;;25.87;62.62;98962.16;4974146;28;42067;-77
2023/08/18 07:15:04;;;;;;;1.97;1.87;;;;;;;26.03;61.18;98991.78;4974274;28;41741;-77
2023/08/18 07:17:31;;;;;;;2.77;1.63;;;;;;;26.13;60.84;98984.16;4974524;28;41516;-82
2023/08/18 07:19:59;;;;;;;2.03;1.90;;;;;;;26.24;61.56;98982.81;4974079;28;39834;-78
2023/08/18 07:26:31;;;;;;;1.77;1.63;;;;;;;26.90;60.59;98962.56;4989947;28;42783;-78
2023/08/18 07:29:00;;;;;;;2.07;1.97;;;;;;;27.40;60.51;98985.94;4989611;28;42257;-82
2023/08/18 07:31:28;;;;;;;2.83;1.90;;;;;;;27.51;58.19;98998.16;4990702;28;40209;-80
2023/08/18 07:33:55;;;;;;;2.60;1.80;;;;;;;27.56;56.80;99003.88;4989346;28;42109;-82
2023/08/18 07:36:22;;;;;;;2.27;1.80;;;;;;;27.66;58.75;98989.88;4973587;28;41631;-83
2023/08/18 07:38:50;;;;;;;2.00;1.90;;;;;;;27.71;56.83;99001.00;4989302;28;42213;-76
2023/08/18 07:41:17;;;;;;;1.70;1.60;;;;;;;27.71;58.25;98981.94;4989430;28;40611;-75
2023/08/18 07:43:45;;;;;;;2.00;1.80;;;;;;;27.85;57.45;99000.00;4972368;28;41690;-78
2023/08/18 07:46:14;;;;;;;1.93;1.57;;;;;;;27.99;56.50;99004.47;4989461;28;41732;-81
2023/08/18 07:48:43;;;;;;;3.37;2.03;;;;;;;28.22;55.19;99002.28;4972787;28;41415;-79
2023/08/18 07:51:10;;;;;;;1.87;1.73;;;;;;;28.56;55.69;98997.75;4973988;28;40867;-83
2023/08/18 07:53:38;;;;;;;1.93;1.60;;;;;;;29.06;53.73;99009.09;4989645;28;41624;-80
2023/08/18 07:56:05;;;;;;;1.80;1.70;;;;;;;29.67;52.85;99006.94;4990539;28;43431;-80
2023/08/18 07:58:33;;;;;;;1.97;1.87;;;;;;;30.03;51.48;99020.06;4973225;28;42286;-76
2023/08/18 08:01:01;;;;;;;1.77;1.60;;;;;;;30.36;49.57;99026.19;4990043;28;40292;-81
2023/08/18 08:03:31;;;;;;;1.70;1.60;;;;;;;30.76;48.02;99038.81;4990993;28;42516;-79
2023/08/18 08:05:58;;;;;;;1.80;1.70;;;;;;;30.93;49.72;99018.03;4976481;28;41850;-74
2023/08/18 08:08:26;;;;;;;2.00;1.90;;;;;;;30.92;48.93;99022.69;4993575;28;42709;-78
2023/08/18 08:10:53;;;;;;;2.73;1.83;;;;;;;30.97;48.78;99014.66;4995090;28;40874;-75
2023/08/18 08:13:21;;;;;;;1.70;1.60;;;;;;;31.02;49.60;99011.25;4993682;28;41864;-73
2023/08/18 08:15:48;;;;;;;1.50;1.40;;;;;;;30.99;48.08;99012.53;4977189;28;42100;-80
2023/08/18 08:18:18;;;;;;;2.17;1.87;;;;;;;30.92;49.44;99005.44;4992104;28;42386;-77
2023/08/18 08:20:47;;;;;;;2.20;1.80;;;;;;;31.01;48.38;99015.88;4993438;28;39764;-76
2023/08/18 08:23:16;;;;;;;2.03;1.93;;;;;;;31.03;47.47;99012.94;4991019;28;40909;-77
2023/08/18 08:25:43;;;;;;;2.13;1.63;;;;;;;31.11;48.35;99007.19;4959925;28;41936;-80
2023/08/18 08:28:11;;;;;;;1.70;1.60;;;;;;;31.21;47.66;99014.91;4991419;28;42943;-82
2023/08/18 08:30:44;;;;;;;1.60;1.50;;;;;;;31.43;45.48;99019.72;4976410;28;39974;-81
2023/08/18 08:33:12;;;;;;;2.03;1.83;;;;;;;31.89;44.63;99034.84;4991648;28;41112;-81
2023/08/18 08:35:40;;;;;;;1.60;1.47;;;;;;;32.18;44.06;99019.53;4992534;28;42343;-81
2023/08/18 08:38:09;;;;;;;1.70;1.47;;;;;;;32.76;42.65;99041.72;4990863;28;41117;-75
2023/08/18 08:40:37;;;;;;;1.90;1.80;;;;;;;33.13;41.41;99047.06;4975629;28;39202;-75
2023/08/18 08:43:05;;;;;;;1.90;1.50;;;;;;;33.36;42.94;99038.03;4992437;28;41744;-76
2023/08/18 08:45:34;;;;;;;1.53;1.40;;;;;;;33.52;39.75;99067.50;4991918;28;42355;-75
2023/08/18 08:48:07;;;;;;;2.50;2.13;;;;;;;33.68;39.20;99061.28;4990818;28;42384;-80
2023/08/18 08:50:38;;;;;;;1.83;1.60;;;;;;;34.01;38.87;99059.84;4990588;28;40981;-80
2023/08/18 08:53:11;;;;;;;1.40;1.30;;;;;;;34.31;39.07;99055.00;4975074;28;40698;-80
2023/08/18 08:55:40;;;;;;;1.43;1.33;;;;;;;34.78;37.94;99071.34;4990497;28;42763;-81
2023/08/18 08:58:07;;;;;;;1.25;1.15;;;;;;;35.44;35.62;99075.25;4991209;28;41169;-77
2023/08/18 09:00:35;;;;;;;1.30;1.20;;;;;;;36.28;35.81;99062.13;4991932;28;40572;-78
2023/08/18 09:03:06;;;;;;;1.52;1.42;;;;;;;37.14;34.12;99063.06;4992382;28;40729;-78
2023/08/18 09:05:34;;;;;;;1.13;1.13;;;;;;;38.28;33.51;99061.63;4991421;28;42837;-78
2023/08/18 09:08:01;;;;;;;1.70;1.60;;;;;;;39.79;30.37;99074.00;4975405;28;42592;-80
2023/08/18 09:10:38;;;;;;;1.10;1.10;;;;;;;41.19;29.35;99079.19;4977163;28;39071;-84
2023/08/18 09:13:06;;;;;;;1.33;1.23;;;;;;;42.43;27.21;99097.16;4991753;28;42984;-82
2023/08/18 09:15:34;;;;;;;1.00;1.00;;;;;;;42.83;27.23;99095.78;4991040;28;42924;-77
2023/08/18 09:18:04;;;;;;;1.13;1.10;;;;;;;42.41;26.80;99096.66;4989594;28;42599;-81
2023/08/18 09:20:32;;;;;;;1.42;1.20;;;;;;;42.24;27.55;99089.56;4974738;28;40410;-76
2023/08/18 09:22:59;;;;;;;1.33;1.20;;;;;;;42.75;26.34;99093.66;4973805;28;41570;-85
2023/08/18 09:25:27;;;;;;;1.40;1.30;;;;;;;43.86;25.60;99091.03;4991556;28;43284;-80
2023/08/18 09:27:58;;;;;;;1.02;1.02;;;;;;;45.13;24.18;99102.31;4990450;28;42133;-79
2023/08/18 09:30:25;;;;;;;1.33;1.23;;;;;;;46.00;23.21;99093.34;4989478;28;40895;-82
2023/08/18 09:33:13;;;;;;;1.20;1.10;;;;;;;46.98;21.91;99092.97;4974734;28;41183;-87
2023/08/18 09:35:40;;;;;;;1.30;1.20;;;;;;;47.48;21.57;99065.22;4975401;28;41644;-80
2023/08/18 09:38:13;;;;;;;1.00;0.88;;;;;;;47.93;20.81;99088.03;4990443;28;41739;-84
2023/08/18 09:40:40;;;;;;;2.10;1.20;;;;;;;47.76;21.11;99094.53;4991574;28;40126;-83
2023/08/18 09:43:10;;;;;;;1.20;1.10;;;;;;;47.36;22.14;99054.63;4990549;28;41706;-79
2023/08/18 09:45:40;;;;;;;1.30;1.10;;;;;;;46.61;22.52;99063.56;4975194;28;41741;-84
2023/08/18 09:48:13;;;;;;;1.23;1.10;;;;;;;45.55;22.49;99059.03;4973622;28;41631;-80
2023/08/18 09:50:42;;;;;;;1.17;1.10;;;;;;;44.07;23.40;99047.63;4989980;28;41842;-86
2023/08/18 09:53:16;;;;;;;1.30;1.20;;;;;;;42.74;26.28;99031.53;4990559;28;41185;-87
2023/08/18 09:55:44;;;;;;;2.15;1.10;;;;;;;41.54;27.19;98996.59;4976923;28;43042;-82
2023/08/18 09:58:23;;;;;;;1.33;1.20;;;;;;;40.87;28.20;99026.91;4958712;28;41107;-82
2023/08/18 10:00:56;;;;;;;1.52;1.42;;;;;;;40.10;28.85;99014.56;4984212;28;38947;-80
2023/08/18 10:03:26;;;;;;;1.35;1.25;;;;;;;39.50;29.35;99013.63;5000925;28;41794;-83
2023/08/18 10:05:54;;;;;;;1.45;1.35;;;;;;;38.93;30.77;98990.91;4993269;28;42448;-87
2023/08/18 10:08:23;;;;;;;1.15;1.13;;;;;;;38.56;30.27;99011.38;4992121;28;41058;-79
2023/08/18 10:10:51;;;;;;;1.65;1.23;;;;;;;38.09;30.29;99012.31;4993021;28;39753;-83
2023/08/18 10:13:21;;;;;;;2.38;1.58;;;;;;;37.97;31.94;98995.06;4991451;28;40476;-84
2023/08/18 10:15:49;;;;;;;1.77;1.42;;;;;;;38.03;32.42;98991.25;4992065;28;41715;-81
2023/08/18 10:18:17;;;;;;;2.03;1.27;;;;;;;37.77;32.55;98994.16;4991009;28;42287;-77
2023/08/18 10:20:49;;;;;;;1.67;1.50;;;;;;;37.45;32.78;98988.72;4993249;28;40734;-81
2023/08/18 10:23:17;;;;;;;1.13;1.02;;;;;;;37.12;32.42;98987.06;4989703;28;40973;-81
2023/08/18 10:25:46;;;;;;;1.35;1.25;;;;;;;36.89;34.41;98960.66;4990901;28;43392;-81
2023/08/18 10:28:44;;;;;;;1.40;1.17;;;;;;;36.68;33.91;98968.75;4989413;28;42308;-85
2023/08/18 10:31:16;;;;;;;1.38;1.27;;;;;;;36.39;34.51;98934.25;4974786;28;38473;-82
2023/08/18 10:33:45;;;;;;;1.15;1.10;;;;;;;36.47;35.45;98953.13;4989842;28;40776;-79
2023/08/18 10:36:18;;;;;;;2.07;1.10;;;;;;;36.33;32.52;98976.69;4974242;28;42244;-82
2023/08/18 10:38:45;;;;;;;1.10;1.00;;;;;;;36.27;33.21;98974.97;4973503;28;42300;-80
2023/08/18 10:41:13;;;;;;;1.00;1.00;;;;;;;36.46;34.33;98958.91;4991276;28;41296;-78
2023/08/18 10:43:47;;;;;;;1.88;1.20;;;;;;;36.77;35.44;98954.50;4991036;28;41889;-85
2023/08/18 10:46:15;;;;;;;2.80;1.20;;;;;;;37.23;33.26;98955.69;5003767;28;43552;-85
2023/08/18 10:48:42;;;;;;;1.50;1.25;;;;;;;37.74;31.80;98985.31;5006336;28;42628;-78
2023/08/18 10:51:10;;;;;;;1.20;1.10;;;;;;;37.87;34.92;98956.34;4974285;28;39067;-81
2023/08/18 10:53:40;;;;;;;1.27;1.17;;;;;;;38.22;32.66;98974.16;4990300;28;41832;-83
2023/08/18 10:56:07;;;;;;;0.90;0.90;;;;;;;38.71;31.28;98967.06;4991724;28;42229;-80
2023/08/18 10:58:35;;;;;;;1.10;1.10;;;;;;;39.34;30.60;98987.00;4990973;28;43297;-81
2023/08/18 11:01:08;;;;;;;2.55;1.00;;;;;;;39.94;31.00;98982.44;4991340;28;39598;-82
2023/08/18 11:03:35;;;;;;;1.00;1.00;;;;;;;40.39;27.49;99002.78;4990359;28;41701;-80
2023/08/18 11:06:04;;;;;;;1.25;1.13;;;;;;;40.79;28.11;98996.97;4991319;28;41816;-77
2023/08/18 11:08:37;;;;;;;1.23;1.00;;;;;;;41.17;27.63;98991.69;4990808;28;20281;-77
2023/08/18 11:11:04;;;;;;;1.20;1.10;;;;;;;41.42;26.73;98994.19;4992403;28;40138;-83
2023/08/18 11:13:32;;;;;;;0.80;0.80;;;;;;;41.48;24.78;99004.16;4990858;28;42264;-83
2023/08/18 11:15:59;;;;;;;1.77;1.00;;;;;;;41.64;25.60;99001.22;4974743;28;41858;-83
2023/08/18 11:18:28;;;;;;;1.17;0.85;;;;;;;41.89;25.87;98993.41;4990099;28;41986;-79
2023/08/18 11:20:58;;;;;;;0.93;0.82;;;;;;;41.89;25.58;98993.41;4992305;28;40673;-82
2023/08/18 11:23:26;;;;;;;0.90;0.90;;;;;;;42.31;27.16;98991.75;4972745;28;42028;-82
2023/08/18 11:25:54;;;;;;;2.38;0.98;;;;;;;42.37;24.51;99006.44;4989852;28;44121;-79
2023/08/18 11:28:22;;;;;;;1.10;1.00;;;;;;;42.17;24.53;99005.56;5005544;28;42129;-82
2023/08/18 11:30:49;;;;;;;1.63;0.95;;;;;;;41.80;26.38;98983.22;4990286;28;40847;-86
2023/08/18 11:33:18;;;;;;;1.25;0.90;;;;;;;41.22;24.06;98998.00;4973842;28;40852;-83
2023/08/18 11:35:52;;;;;;;0.95;0.90;;;;;;;40.74;25.45;98960.91;4989809;28;41920;-87
2023/08/18 11:38:19;;;;;;;1.55;0.95;;;;;;;41.03;24.98;98974.00;4955829;28;40993;-82
2023/08/18 11:40:48;;;;;;;1.77;0.90;;;;;;;41.69;26.36;98968.59;4989807;28;39295;-81
2023/08/18 11:43:16;;;;;;;1.58;0.85;;;;;;;42.19;25.44;98964.34;4989363;28;41974;-81
2023/08/18 11:45:44;;;;;;;0.85;0.82;;;;;;;42.42;26.14;98951.50;4974550;28;41587;-81
2023/08/18 11:48:13;;;;;;;1.20;1.10;;;;;;;42.64;25.47;98953.69;4990409;28;42144;-81
2023/08/18 11:50:42;;;;;;;0.60;0.60;;;;;;;42.82;23.95;98966.78;5005960;28;39968;-82
2023/08/18 11:53:11;;;;;;;0.93;0.88;;;;;;;42.79;23.71;98972.97;5005243;28;41869;-81
2023/08/18 11:55:42;;;;;;;1.20;1.02;;;;;;;42.49;24.74;98973.44;4990636;28;42084;-78
2023/08/18 11:58:13;;;;;;;1.10;0.88;;;;;;;42.56;25.07;98969.13;4989657;28;43592;-77
2023/08/18 12:00:41;;;;;;;0.90;0.90;;;;;;;43.14;24.03;98960.38;4990435;28;38905;-77
2023/08/18 12:03:22;;;;;;;1.17;1.08;;;;;;;43.99;23.66;98976.63;4989675;28;41005;-79
2023/08/18 12:05:50;;;;;;;1.20;0.90;;;;;;;44.53;22.51;98977.63;4987177;28;42882;-80
2023/08/18 12:08:19;;;;;;;0.88;0.85;;;;;;;45.20;21.21;98974.88;4973476;28;41940;-82
2023/08/18 12:10:49;;;;;;;2.40;0.98;;;;;;;45.33;21.90;98968.38;4991680;28;39917;-82